Time;durP1;ratioP1;P1;durP2;ratioP2;P2;SDS_P1;SDS_P2;PMS_P1;PMS_P2;Temp;Humidity;BMP_temperature;BMP_pressure;BME280_temperature;BME280_humidity;BME280_pressure;Samples;Min_cycle;Max_cycle;Signal;HPM_P1;HPM_P2
2021/06/12 00:08:22;;;;;;;5.70;2.17;;;18.50;99.90;;;;;;21038611;28;20562;-49
2021/06/12 00:18:24;;;;;;;11.07;3.95;;;18.50;99.90;;;;;;21038489;28;20491;-49
2021/06/12 00:28:25;;;;;;;11.23;3.50;;;18.50;99.90;;;;;;21037973;28;20559;-49
2021/06/12 00:38:26;;;;;;;7.93;1.88;;;18.20;99.90;;;;;;21036885;28;20704;-49
2021/06/12 00:48:28;;;;;;;5.60;2.88;;;18.20;99.90;;;;;;21036920;28;20531;-49
2021/06/12 00:58:30;;;;;;;9.52;3.53;;;18.20;99.90;;;;;;21042172;28;20456;-49
2021/06/12 01:08:31;;;;;;;9.95;5.03;;;18.10;99.90;;;;;;21044420;28;20090;-49
2021/06/12 01:18:37;;;;;;;7.57;3.35;;;18.20;99.90;;;;;;21046942;28;20047;-49
2021/06/12 01:29:04;;;;;;;5.78;3.05;;;18.10;99.90;;;;;;21047004;28;20114;-49
2021/06/12 01:39:06;;;;;;;6.18;1.73;;;17.90;99.90;;;;;;21017543;28;20502;-49
2021/06/12 01:49:08;;;;;;;6.00;1.58;;;18.10;99.90;;;;;;21046735;28;20487;-48
2021/06/12 01:59:10;;;;;;;11.13;1.80;;;18.00;99.90;;;;;;21045910;28;20077;-49
2021/06/12 02:09:14;;;;;;;5.45;1.88;;;17.90;99.90;;;;;;21050924;28;21167;-51
2021/06/12 02:19:16;;;;;;;7.43;1.30;;;18.10;99.90;;;;;;21047185;28;20559;-49
2021/06/12 02:29:18;;;;;;;15.07;2.53;;;17.90;99.90;;;;;;21042866;28;20044;-48
2021/06/12 02:39:20;;;;;;;5.53;1.45;;;17.90;99.90;;;;;;21041232;28;20578;-49
2021/06/12 02:49:27;;;;;;;5.75;1.95;;;17.80;99.90;;;;;;21042908;28;20687;-49
2021/06/12 02:59:31;;;;;;;4.27;1.80;;;17.90;99.90;;;;;;21042661;28;20499;-49
2021/06/12 03:09:32;;;;;;;6.10;1.50;;;17.90;99.90;;;;;;21023872;28;20079;-49
2021/06/12 03:19:36;;;;;;;13.32;2.40;;;18.00;99.90;;;;;;21037944;28;20051;-49
2021/06/12 03:29:40;;;;;;;3.92;1.48;;;18.00;99.90;;;;;;21036644;28;20552;-49
2021/06/12 03:39:41;;;;;;;6.97;2.00;;;17.90;99.90;;;;;;21038508;28;20077;-49
2021/06/12 03:49:42;;;;;;;6.20;2.25;;;17.80;99.90;;;;;;21039816;28;20032;-49
2021/06/12 03:59:44;;;;;;;7.32;2.20;;;17.80;99.90;;;;;;21037083;28;20555;-49
2021/06/12 04:09:45;;;;;;;4.68;1.50;;;17.70;99.90;;;;;;21034763;28;20495;-49
2021/06/12 04:19:46;;;;;;;3.58;1.95;;;17.70;99.90;;;;;;21032027;28;20067;-49
2021/06/12 04:29:48;;;;;;;3.25;1.58;;;17.50;99.90;;;;;;21042192;28;20051;-49
2021/06/12 04:39:49;;;;;;;2.88;1.05;;;17.60;99.90;;;;;;21050229;28;20048;-49
2021/06/12 04:49:50;;;;;;;3.47;1.30;;;17.50;99.90;;;;;;21043611;28;20063;-49
2021/06/12 04:59:51;;;;;;;3.42;1.65;;;17.40;99.90;;;;;;21047088;28;20060;-51
2021/06/12 05:09:53;;;;;;;6.18;1.90;;;17.50;99.90;;;;;;21051439;28;20080;-49
2021/06/12 05:19:54;;;;;;;5.45;1.75;;;17.40;99.90;;;;;;21049139;28;20047;-49
2021/06/12 05:29:56;;;;;;;5.32;1.95;;;17.40;99.90;;;;;;21046125;28;20047;-49
2021/06/12 05:39:57;;;;;;;5.38;1.98;;;17.60;99.90;;;;;;21022859;28;20429;-49
2021/06/12 05:49:58;;;;;;;3.47;1.35;;;17.80;99.90;;;;;;21044443;28;20067;-49
2021/06/12 05:59:59;;;;;;;4.90;1.40;;;17.80;99.90;;;;;;21040668;28;20052;-50
2021/06/12 06:10:00;;;;;;;7.95;1.95;;;17.80;99.90;;;;;;21043667;28;20063;-49
2021/06/12 06:20:02;;;;;;;5.20;1.40;;;18.10;99.90;;;;;;21037127;28;20044;-49
2021/06/12 06:30:04;;;;;;;3.30;1.00;;;18.20;99.90;;;;;;21034553;28;20040;-51
2021/06/12 06:40:06;;;;;;;2.72;0.80;;;18.30;99.90;;;;;;21035758;28;20544;-51
2021/06/12 06:50:08;;;;;;;2.28;1.00;;;18.50;99.90;;;;;;21029965;28;20231;-51
2021/06/12 07:00:10;;;;;;;3.88;1.42;;;18.30;99.90;;;;;;21040190;28;20043;-51
2021/06/12 07:10:12;;;;;;;2.17;0.88;;;18.40;99.90;;;;;;21040697;28;20924;-51
2021/06/12 07:20:13;;;;;;;1.60;0.50;;;18.30;99.90;;;;;;21035149;28;20127;-50
2021/06/12 07:30:15;;;;;;;1.73;0.65;;;18.50;99.90;;;;;;21035783;28;22062;-50
2021/06/12 07:40:16;;;;;;;1.30;0.52;;;18.70;99.90;;;;;;21032907;28;20569;-50
2021/06/12 07:50:18;;;;;;;2.42;0.88;;;18.90;99.90;;;;;;21037442;28;20050;-50
2021/06/12 08:00:19;;;;;;;2.17;0.90;;;19.00;99.90;;;;;;21022379;28;20051;-50
2021/06/12 08:10:21;;;;;;;1.38;0.70;;;18.90;99.90;;;;;;21042233;28;20055;-50
2021/06/12 08:20:24;;;;;;;2.50;0.82;;;19.20;99.90;;;;;;21040144;28;20529;-50
2021/06/12 08:30:25;;;;;;;2.35;0.75;;;19.20;99.90;;;;;;21039535;28;20564;-49
2021/06/12 08:40:27;;;;;;;8.82;1.13;;;19.40;99.90;;;;;;21043413;28;20591;-49
2021/06/12 08:50:30;;;;;;;2.53;0.60;;;19.60;99.90;;;;;;21045769;28;20047;-49
2021/06/12 09:00:32;;;;;;;1.20;0.57;;;19.60;99.90;;;;;;21044056;28;20044;-48
2021/06/12 09:10:34;;;;;;;3.55;0.88;;;19.80;99.90;;;;;;21041577;28;20056;-49
2021/06/12 09:20:45;;;;;;;2.80;0.60;;;19.90;99.90;;;;;;21045953;28;20054;-49
2021/06/12 09:30:46;;;;;;;4.45;1.05;;;20.20;99.90;;;;;;21051039;28;20040;-48
2021/06/12 09:40:47;;;;;;;2.10;0.90;;;20.40;99.90;;;;;;21048643;28;20515;-49
2021/06/12 09:50:49;;;;;;;1.98;0.73;;;20.50;99.90;;;;;;21048024;28;20468;-49
2021/06/12 10:00:50;;;;;;;4.35;1.20;;;20.50;99.90;;;;;;21037389;28;20047;-49
2021/06/12 10:10:51;;;;;;;1.23;0.35;;;20.50;99.90;;;;;;21027770;28;20515;-48
2021/06/12 10:20:53;;;;;;;4.18;1.17;;;21.10;99.90;;;;;;21037496;28;20517;-49
2021/06/12 10:30:56;;;;;;;2.45;0.60;;;21.40;99.90;;;;;;21024721;28;20036;-49
2021/06/12 10:40:57;;;;;;;2.42;0.80;;;21.40;99.90;;;;;;21036207;28;20052;-49
2021/06/12 10:50:58;;;;;;;2.55;0.70;;;21.80;99.90;;;;;;21037604;28;20526;-49
2021/06/12 11:01:19;;;;;;;4.13;0.82;;;22.00;99.90;;;;;;21036776;28;20058;-49
2021/06/12 11:11:33;;;;;;;7.00;1.00;;;22.00;99.90;;;;;;21041010;28;20059;-49
2021/06/12 11:21:34;;;;;;;2.55;0.55;;;21.90;99.90;;;;;;21040930;28;20044;-49
2021/06/12 11:31:37;;;;;;;2.53;0.60;;;22.00;99.90;;;;;;21040105;28;20036;-49
2021/06/12 11:41:39;;;;;;;1.58;0.52;;;21.20;99.90;;;;;;21024522;28;20047;-49
2021/06/12 11:51:46;;;;;;;2.20;0.82;;;21.00;99.90;;;;;;21038868;28;20040;-49
2021/06/12 12:02:00;;;;;;;1.88;0.63;;;20.90;99.90;;;;;;21021716;28;20051;-49
2021/06/12 12:12:05;;;;;;;2.15;0.57;;;20.50;99.90;;;;;;21027121;28;20028;-49
2021/06/12 12:22:06;;;;;;;1.73;0.52;;;21.30;99.90;;;;;;21035618;28;20048;-49
2021/06/12 12:32:07;;;;;;;2.38;0.68;;;21.10;99.90;;;;;;21035858;28;20040;-49
2021/06/12 12:42:14;;;;;;;2.22;0.60;;;21.30;99.90;;;;;;21035138;28;20147;-49
2021/06/12 12:52:27;;;;;;;1.83;0.40;;;21.20;99.90;;;;;;21047091;28;20040;-49
2021/06/12 13:02:38;;;;;;;2.92;0.70;;;21.10;99.90;;;;;;21049014;28;20308;-49
2021/06/12 13:12:40;;;;;;;0.98;0.30;;;21.30;99.90;;;;;;21049423;28;20043;-49
2021/06/12 13:22:43;;;;;;;0.95;0.40;;;20.90;99.90;;;;;;21052483;28;20048;-49
2021/06/12 13:33:10;;;;;;;0.70;0.30;;;21.60;99.90;;;;;;21033390;28;20051;-49
2021/06/12 13:43:32;;;;;;;5.18;0.50;;;21.60;99.90;;;;;;21052625;28;20043;-49
2021/06/12 13:53:44;;;;;;;0.82;0.28;;;21.80;99.90;;;;;;21047023;28;20044;-49
2021/06/12 14:03:45;;;;;;;1.52;0.57;;;21.00;99.90;;;;;;21015930;28;20059;-49
2021/06/12 14:13:47;;;;;;;1.10;0.50;;;20.20;99.90;;;;;;21025767;28;20071;-49
2021/06/12 14:23:48;;;;;;;1.35;0.47;;;20.10;99.90;;;;;;21038441;28;20054;-49
2021/06/12 14:33:49;;;;;;;0.75;0.30;;;19.80;99.90;;;;;;21036043;28;20067;-50
2021/06/12 14:43:50;;;;;;;3.58;1.15;;;19.60;99.90;;;;;;21033867;28;20044;-49
2021/06/12 14:53:51;;;;;;;2.45;0.70;;;19.70;99.90;;;;;;21036251;28;20067;-49
2021/06/12 15:03:52;;;;;;;1.60;0.50;;;20.00;99.90;;;;;;21036879;28;20047;-49
2021/06/12 15:13:53;;;;;;;1.20;0.52;;;19.50;99.90;;;;;;21038234;28;20494;-49
2021/06/12 15:23:54;;;;;;;0.88;0.38;;;19.10;99.90;;;;;;21044989;28;20150;-49
2021/06/12 15:33:55;;;;;;;4.32;0.77;;;18.90;99.90;;;;;;21045320;28;20048;-48
2021/06/12 15:43:57;;;;;;;2.72;0.98;;;19.10;99.90;;;;;;21027551;28;20054;-49
2021/06/12 15:53:58;;;;;;;2.25;0.68;;;18.90;99.90;;;;;;21044050;28;20104;-49
2021/06/12 16:04:00;;;;;;;2.45;0.80;;;18.80;99.90;;;;;;21045797;28;20076;-49
2021/06/12 16:14:02;;;;;;;8.25;1.15;;;19.00;99.90;;;;;;21044430;28;20048;-49
2021/06/12 16:24:03;;;;;;;3.05;0.85;;;18.90;99.90;;;;;;21020507;28;20047;-49
2021/06/12 16:34:05;;;;;;;1.48;0.50;;;18.90;99.90;;;;;;21049895;28;20048;-49
2021/06/12 16:44:07;;;;;;;2.17;0.90;;;18.80;99.90;;;;;;21053906;28;20043;-49
2021/06/12 16:54:23;;;;;;;2.05;0.70;;;18.60;99.90;;;;;;21048341;28;20126;-48
2021/06/12 17:04:24;;;;;;;3.55;1.27;;;18.40;99.90;;;;;;21042434;28;20048;-48
2021/06/12 17:14:26;;;;;;;1.80;0.80;;;18.30;99.90;;;;;;21041100;28;20044;-48
2021/06/12 17:24:27;;;;;;;2.17;0.95;;;18.20;99.90;;;;;;21050284;28;20068;-48
2021/06/12 17:34:28;;;;;;;1.83;0.70;;;18.00;99.90;;;;;;21047865;28;20046;-48
2021/06/12 17:44:30;;;;;;;2.50;1.25;;;18.00;99.90;;;;;;21026377;28;20055;-49
2021/06/12 17:54:31;;;;;;;2.53;1.02;;;18.00;99.90;;;;;;21048293;28;20050;-48
2021/06/12 18:04:32;;;;;;;1.70;0.70;;;17.70;99.90;;;;;;21047066;28;20051;-48
2021/06/12 18:14:33;;;;;;;1.67;0.60;;;17.50;99.90;;;;;;21048293;28;20044;-48
2021/06/12 18:24:35;;;;;;;1.55;0.68;;;17.50;99.90;;;;;;21028733;28;20077;-48
2021/06/12 18:34:36;;;;;;;3.33;1.20;;;17.30;99.90;;;;;;21046117;28;20050;-48
2021/06/12 18:44:37;;;;;;;4.97;1.17;;;17.00;99.90;;;;;;21045918;28;20067;-48
2021/06/12 18:54:38;;;;;;;2.63;0.73;;;16.90;99.90;;;;;;21044108;28;20436;-48
2021/06/12 19:04:40;;;;;;;3.90;1.88;;;16.80;99.90;;;;;;21043769;28;20062;-48
2021/06/12 19:14:41;;;;;;;6.95;2.65;;;16.50;99.90;;;;;;21043483;28;20060;-48
2021/06/12 19:24:42;;;;;;;22.65;8.30;;;16.30;99.90;;;;;;21041329;28;20109;-50
2021/06/12 19:34:47;;;;;;;4.05;1.80;;;16.20;99.90;;;;;;21041908;28;20541;-48
2021/06/12 19:44:49;;;;;;;6.07;1.33;;;16.00;99.90;;;;;;21038571;28;20446;-48
2021/06/12 19:54:50;;;;;;;4.25;1.52;;;15.80;99.90;;;;;;21022975;28;20040;-48
2021/06/12 20:04:51;;;;;;;6.25;1.90;;;15.60;99.90;;;;;;21035112;28;20134;-50
2021/06/12 20:14:52;;;;;;;5.55;2.22;;;15.50;99.90;;;;;;21033574;28;20476;-48
2021/06/12 20:24:54;;;;;;;6.10;2.55;;;15.20;99.90;;;;;;21036418;28;20062;-48
2021/06/12 20:34:55;;;;;;;6.65;1.63;;;15.00;99.90;;;;;;21035087;28;20160;-48
2021/06/12 20:44:56;;;;;;;2.90;1.25;;;14.80;99.90;;;;;;21036106;28;20040;-48
2021/06/12 20:54:57;;;;;;;4.25;1.30;;;14.70;99.90;;;;;;21033810;28;20063;-48
2021/06/12 21:04:58;;;;;;;7.13;1.92;;;14.60;99.90;;;;;;21036538;28;20044;-48
2021/06/12 21:14:59;;;;;;;3.17;1.20;;;14.40;99.90;;;;;;21049349;28;20097;-48
2021/06/12 21:25:01;;;;;;;3.22;1.13;;;14.30;99.90;;;;;;21050286;28;20492;-48
2021/06/12 21:35:03;;;;;;;5.07;1.85;;;14.30;99.90;;;;;;21046063;28;20040;-48
2021/06/12 21:45:05;;;;;;;3.50;1.42;;;14.10;99.90;;;;;;21045858;28;20040;-48
2021/06/12 21:55:07;;;;;;;8.32;2.72;;;14.00;99.90;;;;;;21045988;28;20047;-48
2021/06/12 22:05:08;;;;;;;8.13;2.20;;;13.90;99.90;;;;;;21034278;28;20036;-50
2021/06/12 22:15:10;;;;;;;7.35;3.15;;;14.00;99.90;;;;;;21046674;28;20036;-48
2021/06/12 22:25:11;;;;;;;5.28;2.42;;;13.90;99.90;;;;;;21041274;28;20050;-50
2021/06/12 22:35:13;;;;;;;3.53;2.00;;;13.80;99.90;;;;;;21042012;28;20032;-48
2021/06/12 22:45:16;;;;;;;6.80;1.70;;;13.50;99.90;;;;;;21040034;28;20081;-48
2021/06/12 22:55:17;;;;;;;4.07;1.73;;;13.40;99.90;;;;;;21041271;28;20040;-50
2021/06/12 23:05:18;;;;;;;3.63;1.52;;;13.40;99.90;;;;;;21042900;28;20056;-50
2021/06/12 23:15:20;;;;;;;5.70;1.92;;;13.60;99.90;;;;;;21042911;28;20600;-50
2021/06/12 23:25:21;;;;;;;4.45;2.08;;;13.40;99.90;;;;;;21039549;28;20056;-50
2021/06/12 23:35:22;;;;;;;6.00;2.00;;;13.40;99.90;;;;;;21040911;28;20040;-50
2021/06/12 23:45:23;;;;;;;5.50;2.33;;;13.30;99.90;;;;;;21040273;28;20044;-50
2021/06/12 23:55:24;;;;;;;7.18;2.38;;;13.10;99.90;;;;;;21038722;28;20048;-50
